Sonic Adventure (DX): Overall Rankings

Records: Times | Rings | Scores | Races | Bosses | Freestyle
Leaders: Times | Rings | Scores | Races | Bosses | Freestyle | Overall
Rank Player Percent Points Date Grade
1 Sonicspeedruner 98.4% 259 07-05-15 S
2 Gamepro011 97.6% 384 07-05-15 A
3 DarkPolarNight 96.2% 622 07-05-15 A
4 Jawzun 93.8% 1007 07-05-15 A
5 Dashjump 91.7% 1359 07-05-15 A
6 DarkspinesSonic 90.7% 1516 07-05-15 A
7 Avento128bits 90.3% 1587 07-05-15 A
8 ike6252 90.1% 1622 07-05-15 A
9 F-Man 85.9% 2294 07-05-15 A
10 HyperSonic7701 85.0% 2442 07-05-15 A
11 Coolfansonic 83.9% 2630 07-05-15 A
12 yoshifan 83.4% 2705 07-05-15 A
13 frankoredstrato 83.0% 2769 07-05-15 A
14 TheRealShadnic 82.1% 2930 07-05-15 A
15 francisco 82.0% 2939 07-05-15 A
16 Marth 81.7% 2987 07-05-15 A
17 InferSaime 80.4% 3203 07-05-15 A
18 PfoSonic 80.0% 3270 07-05-15 A
19 Paragod 79.5% 3349 07-05-15 B
20 THC98 78.3% 3539 07-05-15 B
21 Stefan 76.3% 3883 07-05-15 B
22 RPGnutter 74.0% 4255 07-05-15 B
23 bertin 73.9% 4265 07-05-15 B
24 sonicam 71.7% 4634 07-05-15 B
25 Combo 65.7% 5617 07-05-15 B
26 SkyLights 64.4% 5817 07-05-15 B
27 drminus 63.7% 5936 07-05-15 B
28 xXMegaManXx 63.6% 5953 07-05-15 B
29 Diamond 62.8% 6088 07-05-15 B
30 OmegaDJ 60.3% 6491 07-05-15 B
31 GerbilSoft 60.3% 6493 07-05-15 B
32 Auriman1 60.2% 6507 07-05-15 B
33 magnum12 59.3% 6658 07-05-15 C
34 Dawid8404 59.2% 6681 07-05-15 C
35 Thorn 57.3% 6995 07-05-15 C
36 P1 Pause 57.0% 7037 07-05-15 C
37 mike89 55.8% 7231 07-05-15 C
38 chainchumper 54.1% 7515 07-05-15 C
39 Groudon199 53.9% 7541 07-05-15 C
40 Dave Cramer 53.9% 7543 07-05-15 C
41 Parax 53.3% 7643 07-05-15 C
42 Shadow Jacky 52.8% 7731 07-05-15 C
43 Psymar 47.6% 8571 07-05-15 C
44 Chao_Fan 45.8% 8868 07-05-15 C
45 Arch 45.6% 8911 07-05-15 C
46 mauserman 45.4% 8939 07-05-15 C
47 Quartz 44.7% 9053 07-05-15 C
48 teamblackarms 43.7% 9218 07-05-15 C
49 Psyknux 43.6% 9240 07-05-15 C
50 James_Bertolli 42.9% 9344 07-05-15 C
51 NintenDan 42.4% 9429 07-05-15 C
52 Webber3000 41.8% 9520 07-05-15 C
53 Fr3nZy 41.7% 9541 07-05-15 C
54 Turbos 41.7% 9543 07-05-15 C
55 Ring Rush 41.7% 9549 07-05-15 C
56 Cream147 41.4% 9595 07-05-15 C
57 videogamemaster777 41.2% 9622 07-05-15 C
58 Siavash Tazari 41.0% 9666 07-05-15 C
59 buddychaos0415 40.6% 9726 07-05-15 C
60 SadisticMystic 39.9% 9833 07-05-15 D
61 eggFL 39.0% 9985 07-05-15 D
62 Redd 38.7% 10036 07-05-15 D
63 SB737 37.4% 10243 07-05-15 D
64 supersonicfan 36.3% 10433 07-05-15 D
65 FuzZerd 35.3% 10595 07-05-15 D
66 elecmouse101 34.5% 10724 07-05-15 D
67 supersonic465 34.3% 10751 07-05-15 D
68 Austinf 33.7% 10860 07-05-15 D
69 metanightmare22 32.9% 10984 07-05-15 D
70 Aitamen 32.8% 10996 07-05-15 D
71 dabestgamer 32.6% 11031 07-05-15 D
72 MiStEr_ShAoLiN 32.6% 11038 07-05-15 D
73 Cyan Ryan 32.5% 11045 07-05-15 D
74 itsPersonnal 31.8% 11170 07-05-15 D
75 Cybrax 31.1% 11288 07-05-15 D
76 Andrea Ritsu 30.6% 11355 07-05-15 D
77 danieldude 30.5% 11381 07-05-15 D
78 SilvertheAlmighty 30.5% 11386 07-05-15 D
79 VMU Player Banned 28.9% 11647 07-05-15 D
80 Omega Rafael Santos 28.5% 11703 07-05-15 D
81 Staf 28.1% 11770 07-05-15 D
82 The T 27.9% 11807 07-05-15 D
83 EngiNerd 27.5% 11869 07-05-15 D
84 lordmetalsonic 26.9% 11973 07-05-15 D
85 Hipertails12 26.8% 11989 07-05-15 D
86 GreatStar 26.3% 12069 07-05-15 D
87 welldooder64 26.3% 12073 07-05-15 D
88 Sondow 26.1% 12101 07-05-15 D
89 Mastakirby 25.9% 12134 07-05-15 D
90 The Great Lord Mick 25.9% 12135 07-05-15 D
91 LinksDarkArrows 25.7% 12168 07-05-15 D
92 Nimrod 25.6% 12189 07-05-15 D
93 Skylace 24.8% 12309 07-05-15 D
94 Rolken 23.3% 12559 07-05-15 D
95 Xia 21.8% 12809 07-05-15 D
96 Kogen Player Banned 21.6% 12834 07-05-15 D
97 Spinballwizard 21.5% 12848 07-05-15 D
98 Don 21.3% 12879 07-05-15 D
99 Miles9999 21.2% 12900 07-05-15 D
100 Cutiefox 21.2% 12909 07-05-15 D
101 Game_Complete 21.1% 12919 07-05-15 D
102 f0rever_zer0 21.1% 12920 07-05-15 D
103 andres430 20.4% 13041 07-05-15 D
104 Cruizer 20.3% 13054 07-05-15 D
105 iSonicKid2K 20.0% 13099 07-05-15 D
106 SADXTryHard 19.8% 13133 07-05-15 E
107 GarnetPrincess 19.3% 13210 07-05-15 E
108 a_moustache 19.2% 13225 07-05-15 E
109 knuckles_sonic8 18.7% 13307 07-05-15 E
110 Team_Yoshi 18.2% 13390 07-05-15 E
111 KinkyCadence 18.0% 13420 07-05-15 E
112 The Knuckles Chao 17.9% 13440 07-05-15 E
113 Termon 17.8% 13467 07-05-15 E
114 FoxBoy 17.7% 13483 07-05-15 E
115 LittleBigness 17.6% 13497 07-05-15 E
116 SonicWinDX 17.4% 13521 07-05-15 E
117 Sonic Singularity 15.5% 13832 07-05-15 E
118 Pokemonmaster888 15.5% 13838 07-05-15 E
119 Drakodan 14.4% 14011 07-05-15 E
120 BigAL49 14.4% 14014 07-05-15 E
121 SilverSonic 14.3% 14031 07-05-15 E
122 MPit08 14.1% 14063 07-05-15 E
123 WeegeeZV 14.1% 14064 07-05-15 E
124 Mo Player Banned 14.1% 14072 07-05-15 E
125 AxlThunder 14.1% 14073 07-05-15 E
126 Cod4Scopes 13.4% 14177 07-05-15 E
127 HyperSonic64 13.2% 14209 07-05-15 E
128 booo95 13.1% 14228 07-05-15 E
129 Chawkk 13.0% 14238 07-05-15 E
130 paulie9990 13.0% 14245 07-05-15 E
131 Hunters13 13.0% 14254 07-05-15 E
132 SuperSonic101 12.9% 14256 07-05-15 E
133 Maxinfamily 12.7% 14298 07-05-15 E
134 Kanimayo_Jp 12.5% 14336 07-05-15 E
135 PsyBorg 12.4% 14337 07-05-15 E
136 Flying Fox 12.4% 14342 07-05-15 E
137 BrokenArthritis 12.3% 14359 07-05-15 E
138 LilZero 12.2% 14370 07-05-15 E
139 Jerzia 12.2% 14385 07-05-15 E
140 Therio 11.7% 14456 07-05-15 E
141 sonicspeed 11.6% 14477 07-05-15 E
142 douglas 11.5% 14498 07-05-15 E
143 Matt_TY 11.2% 14545 07-05-15 E
144 joecoolgames 10.5% 14648 07-05-15 E
145 Cooljay 10.5% 14656 07-05-15 E
146 SeaWolf 10.5% 14660 07-05-15 E
147 TFEC Headshot 9.9% 14752 07-05-15 E
148 welshmoose05 9.8% 14764 07-05-15 E
149 crazy1993 9.6% 14805 07-05-15 E
150 OddCook 9.6% 14810 07-05-15 E
151 Mcshuggets 9.5% 14815 07-05-15 E
152 videogamer1014 9.2% 14861 07-05-15 E
153 imazor017 9.2% 14864 07-05-15 E
154 nuckrieg 9.1% 14892 07-05-15 E
155 niscool 9.0% 14898 07-05-15 E
156 SonicAD 9.0% 14901 07-05-15 E
157 SirTobbii 8.8% 14930 07-05-15 E
158 Shadowthegreat 8.7% 14950 07-05-15 E
159 superjupi 8.7% 14951 07-05-15 E
160 SaviourDC 8.4% 14994 07-05-15 E
161 iarebored 8.4% 14995 07-05-15 E
162 sonamyfan666 8.3% 15012 07-05-15 E
163 Werey 8.3% 15020 07-05-15 E
164 SonicKnuckles 8.2% 15032 07-05-15 E
165 adf 7.9% 15082 07-05-15 E
166 ArcticDragon 7.8% 15096 07-05-15 E
167 Megaman EXE565 7.7% 15120 07-05-15 E
168 Platformer 7.4% 15161 07-05-15 E
169 Mariobutch 7.4% 15171 07-05-15 E
170 FocusSight64 7.3% 15178 07-05-15 E
171 Swift Hobo 7.2% 15200 07-05-15 E
172 wheatrich 7.2% 15201 07-05-15 E
173 timpkmn89 7.2% 15202 07-05-15 E
174 Rickyman48 7.0% 15222 07-05-15 E
175 KitsuneYamaro 6.7% 15278 07-05-15 E
176 Triseena 6.6% 15294 07-05-15 E
177 CyberShadow 6.5% 15313 07-05-15 E
178 slade23 6.4% 15333 07-05-15 E
179 Starlight Sable 6.4% 15335 07-05-15 E
180 dShadow 6.3% 15342 07-05-15 E
181 IsisDazs 6.2% 15357 07-05-15 E
182 BlankTH 6.0% 15394 07-05-15 E
183 Monkeh 5.8% 15426 07-05-15 E
184 Richied 5.7% 15447 07-05-15 E
185 DaDude 5.6% 15458 07-05-15 E
186 SonicU260 5.6% 15464 07-05-15 E
187 sonicd5 5.5% 15476 07-05-15 E
188 Zip 5.4% 15492 07-05-15 E
189 Kirbymon30 5.1% 15541 07-05-15 E
190 tal39h 5.1% 15544 07-05-15 E
191 ethmar 4.9% 15577 07-05-15 E
192 Drflash55 4.8% 15592 07-05-15 E
192 soniccoloursunleashed 4.8% 15592 07-05-15 E
194 Yish 4.7% 15607 07-05-15 E
195 neaolas 4.6% 15618 07-05-15 E
196 Bass 4.6% 15624 07-05-15 E
197 Sonicsuperstar1 4.5% 15632 07-05-15 E
198 UninspiredUsername 4.5% 15634 07-05-15 E
199 superiorsonic 4.5% 15637 07-05-15 E
200 zapp 4.5% 15644 07-05-15 E
201 gamefreak1292 4.4% 15654 07-05-15 E
202 Chaos_Overlord 4.1% 15707 07-05-15 E
203 TakaRikka 4.0% 15724 07-05-15 E
204 Valfore 3.9% 15732 07-05-15 E
205 ShinigamiMachine 3.8% 15751 07-05-15 E
206 Regano1000 3.7% 15769 07-05-15 E
207 MK 3.6% 15788 07-05-15 E
208 Ace747 3.5% 15800 07-05-15 E
209 Illidan 3.2% 15848 07-05-15 E
210 HHNNBBHHN 3.2% 15855 07-05-15 E
211 Venick409 3.1% 15861 07-05-15 E
212 Brian_pso 3.1% 15873 07-05-15 E
213 Sithwarrior26 3.0% 15879 07-05-15 E
214 TheChaosEmeraIds 2.9% 15898 07-05-15 E
215 ingx24 2.9% 15899 07-05-15 E
216 Nickson98 2.8% 15911 07-05-15 E
217 SkyBon 2.8% 15912 07-05-15 E
218 FSSRandomvids 2.8% 15922 07-05-15 E
219 Fozer 2.7% 15926 07-05-15 E
220 sonic29887 2.7% 15933 07-05-15 E
221 Colomb_30 2.7% 15940 07-05-15 E
222 TheUltraBlur 2.6% 15948 07-05-15 E
223 1stKirbyever 2.5% 15960 07-05-15 E
224 Th4tN1nj4Turtl3 2.3% 15992 07-05-15 E
225 Cort_pso 2.3% 15994 07-05-15 E
226 Doom-9 2.3% 15999 07-05-15 E
227 ieatatsonic 2.2% 16012 07-05-15 E
228 Mariosonic15 2.2% 16013 07-05-15 E
229 SuperSonic71087 2.2% 16020 07-05-15 E
230 MStitomix 2.1% 16028 07-05-15 E
231 HermitHelmet 2.1% 16036 07-05-15 E
232 Artie 2.0% 16046 07-05-15 E
233 Got4n 2.0% 16047 07-05-15 E
234 Questionguy555 2.0% 16053 07-05-15 E
235 Jose_15 2.0% 16056 07-05-15 E
236 djmat 1.8% 16074 07-05-15 E
237 SuperSonicfan9595 1.8% 16076 07-05-15 E
238 sonicandamy 1.7% 16090 07-05-15 E
239 LancexExWx 1.7% 16099 07-05-15 E
240 Heroes_Hater 1.7% 16103 07-05-15 E
240 son1cgu1tar 1.7% 16103 07-05-15 E
242 Paixii 1.6% 16106 07-05-15 E
243 BallzeH 1.5% 16124 07-05-15 E
244 Jamixesa 1.5% 16131 07-05-15 E
244 Mankster101 1.5% 16131 07-05-15 E
246 BecauseWarAnvil 1.5% 16134 07-05-15 E
247 Crydio 1.4% 16139 07-05-15 E
248 Shanekilz 1.4% 16144 07-05-15 E
249 SpiritDragon1995 1.4% 16145 07-05-15 E
250 ReuelBrony 1.4% 16152 07-05-15 E
251 stanski 1.3% 16158 07-05-15 E
252 MarewBFN 1.3% 16161 07-05-15 E
253 Sonique Hedgehog 1.3% 16167 07-05-15 E
254 Blue Infamy 1.2% 16174 07-05-15 E
255 p0ker 1.2% 16175 07-05-15 E
256 ErrortheCucco 1.2% 16184 07-05-15 E
257 Arthas 1.2% 16187 07-05-15 E
257 Rikum22 1.2% 16187 07-05-15 E
259 sonic1001 1.1% 16195 07-05-15 E
260 WingedInsignia 1.1% 16198 07-05-15 E
261 syco1098 1.1% 16202 07-05-15 E
262 AJSIV 1.1% 16203 07-05-15 E
263 Sonic the Hedgehod16 1.0% 16206 07-05-15 E
264 sonicfan9 1.0% 16208 07-05-15 E
265 Calfd 1.0% 16213 07-05-15 E
266 BlackArmsShadow 0.9% 16223 07-05-15 E
267 themachoman202 0.9% 16227 07-05-15 E
268 RealProjectMVP1 PSN 0.9% 16229 07-05-15 E
269 Ben1502 0.9% 16233 07-05-15 E
270 Greham Adelphis 0.9% 16234 07-05-15 E
271 shadowblast63 Player Banned 0.9% 16235 07-05-15 E
272 MastaToken 0.9% 16236 07-05-15 E
273 Fivavoa 0.8% 16237 07-05-15 E
274 Mr. Jones 0.8% 16238 07-05-15 E
275 arcfx1985 0.8% 16240 07-05-15 E
275 darkstarblaze 0.8% 16240 07-05-15 E
275 ptorflaxendrosis 0.8% 16240 07-05-15 E
278 FlandreScarlet9999vr 0.8% 16245 07-05-15 E
278 Gvozdevik 0.8% 16245 07-05-15 E
278 Knuckles 0.8% 16245 07-05-15 E
281 Zeldocto 0.8% 16250 07-05-15 E
282 KaM Mark MaK 0.7% 16254 07-05-15 E
283 BeeAwwb 0.7% 16257 07-05-15 E
284 ShadouZaHejjihoggu 0.7% 16261 07-05-15 E
285 Sonic62 0.7% 16266 07-05-15 E
286 darkersupershadic 0.6% 16270 07-05-15 E
286 Sogeking 0.6% 16270 07-05-15 E
288 Shadygamerfreak 0.6% 16273 07-05-15 E
289 dragondragon18 0.6% 16274 07-05-15 E
290 SonicK100 0.6% 16275 07-05-15 E
291 Grady219 0.6% 16276 07-05-15 E
291 Sarger001 0.6% 16276 07-05-15 E
293 Jawaah 0.6% 16279 07-05-15 E
294 Antek 0.6% 16285 07-05-15 E
295 SilverK 0.5% 16286 07-05-15 E
296 Klaus 0.5% 16287 07-05-15 E
297 SpinDashMaster 0.5% 16290 07-05-15 E
298 BioShadow 0.5% 16292 07-05-15 E
299 Videogamer123 0.5% 16295 07-05-15 E
300 oTaiIilLsS 0.4% 16309 07-05-15 E
301 Egor305 0.4% 16310 07-05-15 E
302 Mad Andy 0.4% 16311 07-05-15 E
303 isaihtb11 0.4% 16312 07-05-15 E
304 OhNoes! 0.4% 16313 07-05-15 E
305 S-MS32X-S 0.4% 16315 07-05-15 E
305 zaktu40 0.4% 16315 07-05-15 E
307 gaara1234 0.4% 16318 07-05-15 E
308 gamed00d 0.3% 16320 07-05-15 E
309 Mister_Slick 0.3% 16328 07-05-15 E
310 Sonic06Fan 0.3% 16330 07-05-15 E
311 Rush Hero 0.3% 16332 07-05-15 E
312 Iwannabelink 0.2% 16336 07-05-15 E
312 SonicMega167 0.2% 16336 07-05-15 E
314 sonknuck23 0.2% 16341 07-05-15 E
315 DanielTheFalcon 0.2% 16346 07-05-15 E
315 gamer1245 0.2% 16346 07-05-15 E
317 Burningskull123 0.1% 16355 07-05-15 E
318 Sonicontherun 0.1% 16364 07-05-15 E
319 Lil_Dude 0.0% 16368 07-05-15 E
320 antiwwe 0.0% 16370 07-05-15 E
321 Cbwade15 0.0% 16374 07-05-15 E
321 Genuine Hedgehog 0.0% 16374 07-05-15 E
323 Tyrouble 0.0% 16377 07-05-15 E
324 MegabombBlade 0.0% 16384 07-05-15 E
324 neji_hyuuga 0.0% 16384 07-05-15 E
324 Over 0.0% 16384 07-05-15 E
324 sdj6707 Player Banned 0.0% 16384 07-05-15 E
324 Tran Sonic Fan Player Banned 0.0% 16384 07-05-15 E

This page is using the New Data Table System. [FUTURE]


-- Back to Normal Skin --
Game ID: 3 | Category ID: 10
Hits: 63,815 | Hits This Month: 50 | DB Calls: 16 | Mem Usage: 5.44 MB | Time: 0.11s | Printable

The Sonic Center v3.9
Copyright 2003-2011 by The Sonic Center Team.